sensor_id;sensor_type;location;lat;lon;timestamp;P1;durP1;ratioP1;P2;durP2;ratioP2
1128;SDS011;553;51.038;7.216;2022-07-31T00:00:10;3.73;;;3.03;;
1128;SDS011;553;51.038;7.216;2022-07-31T00:02:37;5.30;;;3.13;;
1128;SDS011;553;51.038;7.216;2022-07-31T00:05:04;4.63;;;3.60;;
1128;SDS011;553;51.038;7.216;2022-07-31T00:07:31;3.70;;;2.90;;
1128;SDS011;553;51.038;7.216;2022-07-31T00:09:58;3.30;;;3.00;;
1128;SDS011;553;51.038;7.216;2022-07-31T00:12:25;5.00;;;3.43;;
1128;SDS011;553;51.038;7.216;2022-07-31T00:14:52;4.80;;;3.00;;
1128;SDS011;553;51.038;7.216;2022-07-31T00:17:19;5.07;;;3.40;;
1128;SDS011;553;51.038;7.216;2022-07-31T00:19:45;4.30;;;3.13;;
1128;SDS011;553;51.038;7.216;2022-07-31T00:22:12;4.10;;;3.63;;
1128;SDS011;553;51.038;7.216;2022-07-31T00:24:39;7.00;;;3.33;;
1128;SDS011;553;51.038;7.216;2022-07-31T00:27:06;3.90;;;3.47;;
1128;SDS011;553;51.038;7.216;2022-07-31T00:29:35;4.00;;;2.80;;
1128;SDS011;553;51.038;7.216;2022-07-31T00:32:03;4.03;;;2.93;;
1128;SDS011;553;51.038;7.216;2022-07-31T00:34:30;8.17;;;3.50;;
1128;SDS011;553;51.038;7.216;2022-07-31T00:36:57;5.20;;;3.67;;
1128;SDS011;553;51.038;7.216;2022-07-31T00:39:24;4.40;;;3.27;;
1128;SDS011;553;51.038;7.216;2022-07-31T00:41:51;4.87;;;3.13;;
1128;SDS011;553;51.038;7.216;2022-07-31T00:44:20;4.53;;;3.10;;
1128;SDS011;553;51.038;7.216;2022-07-31T00:46:48;3.93;;;3.40;;
1128;SDS011;553;51.038;7.216;2022-07-31T00:49:15;6.57;;;3.50;;
1128;SDS011;553;51.038;7.216;2022-07-31T00:51:42;6.90;;;4.07;;
1128;SDS011;553;51.038;7.216;2022-07-31T00:54:09;6.53;;;4.43;;
1128;SDS011;553;51.038;7.216;2022-07-31T00:56:48;4.17;;;3.77;;
1128;SDS011;553;51.038;7.216;2022-07-31T00:59:15;5.90;;;3.53;;
1128;SDS011;553;51.038;7.216;2022-07-31T01:01:49;7.57;;;3.87;;
1128;SDS011;553;51.038;7.216;2022-07-31T01:04:16;4.80;;;3.67;;
1128;SDS011;553;51.038;7.216;2022-07-31T01:06:45;4.50;;;3.70;;
1128;SDS011;553;51.038;7.216;2022-07-31T01:09:12;5.60;;;3.80;;
1128;SDS011;553;51.038;7.216;2022-07-31T01:14:33;4.23;;;3.37;;
1128;SDS011;553;51.038;7.216;2022-07-31T01:17:04;4.00;;;3.60;;
1128;SDS011;553;51.038;7.216;2022-07-31T01:19:40;5.73;;;3.57;;
1128;SDS011;553;51.038;7.216;2022-07-31T01:25:31;6.67;;;3.57;;
1128;SDS011;553;51.038;7.216;2022-07-31T01:28:23;5.37;;;3.77;;
1128;SDS011;553;51.038;7.216;2022-07-31T01:31:22;5.17;;;4.00;;
1128;SDS011;553;51.038;7.216;2022-07-31T01:33:58;6.13;;;4.43;;
1128;SDS011;553;51.038;7.216;2022-07-31T01:36:31;4.67;;;4.27;;
1128;SDS011;553;51.038;7.216;2022-07-31T01:39:02;7.40;;;4.10;;
1128;SDS011;553;51.038;7.216;2022-07-31T01:41:32;5.50;;;3.83;;
1128;SDS011;553;51.038;7.216;2022-07-31T01:44:03;6.70;;;4.53;;
1128;SDS011;553;51.038;7.216;2022-07-31T01:46:33;7.23;;;4.00;;
1128;SDS011;553;51.038;7.216;2022-07-31T01:49:08;5.83;;;3.87;;
1128;SDS011;553;51.038;7.216;2022-07-31T01:51:37;4.63;;;4.13;;
1128;SDS011;553;51.038;7.216;2022-07-31T01:54:07;4.07;;;3.77;;
1128;SDS011;553;51.038;7.216;2022-07-31T01:56:35;4.57;;;3.77;;
1128;SDS011;553;51.038;7.216;2022-07-31T01:59:04;4.77;;;3.80;;
1128;SDS011;553;51.038;7.216;2022-07-31T02:02:07;5.37;;;4.50;;
1128;SDS011;553;51.038;7.216;2022-07-31T02:04:35;4.17;;;3.50;;
1128;SDS011;553;51.038;7.216;2022-07-31T02:07:04;4.27;;;3.87;;
1128;SDS011;553;51.038;7.216;2022-07-31T02:09:33;6.07;;;4.00;;
1128;SDS011;553;51.038;7.216;2022-07-31T02:12:01;5.60;;;3.53;;
1128;SDS011;553;51.038;7.216;2022-07-31T02:14:34;5.23;;;4.10;;
1128;SDS011;553;51.038;7.216;2022-07-31T02:17:01;7.00;;;4.43;;
1128;SDS011;553;51.038;7.216;2022-07-31T02:19:51;5.70;;;4.03;;
1128;SDS011;553;51.038;7.216;2022-07-31T02:22:26;4.90;;;4.27;;
1128;SDS011;553;51.038;7.216;2022-07-31T02:24:54;7.13;;;4.07;;
1128;SDS011;553;51.038;7.216;2022-07-31T02:27:21;4.60;;;4.20;;
1128;SDS011;553;51.038;7.216;2022-07-31T02:30:11;5.20;;;3.80;;
1128;SDS011;553;51.038;7.216;2022-07-31T02:32:38;5.70;;;4.10;;
1128;SDS011;553;51.038;7.216;2022-07-31T02:35:07;4.37;;;3.83;;
1128;SDS011;553;51.038;7.216;2022-07-31T02:37:36;4.60;;;4.20;;
1128;SDS011;553;51.038;7.216;2022-07-31T02:40:05;5.93;;;3.87;;
1128;SDS011;553;51.038;7.216;2022-07-31T02:42:34;7.00;;;4.20;;
1128;SDS011;553;51.038;7.216;2022-07-31T02:45:02;5.60;;;4.20;;
1128;SDS011;553;51.038;7.216;2022-07-31T02:47:29;4.60;;;3.77;;
1128;SDS011;553;51.038;7.216;2022-07-31T02:50:00;5.23;;;4.00;;
1128;SDS011;553;51.038;7.216;2022-07-31T02:52:28;4.63;;;4.10;;
1128;SDS011;553;51.038;7.216;2022-07-31T02:54:56;6.73;;;4.20;;
1128;SDS011;553;51.038;7.216;2022-07-31T02:57:24;8.80;;;5.13;;
1128;SDS011;553;51.038;7.216;2022-07-31T02:59:51;4.97;;;4.47;;
1128;SDS011;553;51.038;7.216;2022-07-31T03:02:19;5.17;;;3.87;;
1128;SDS011;553;51.038;7.216;2022-07-31T03:04:46;6.20;;;4.53;;
1128;SDS011;553;51.038;7.216;2022-07-31T03:07:13;5.67;;;4.30;;
1128;SDS011;553;51.038;7.216;2022-07-31T03:09:44;6.43;;;4.10;;
1128;SDS011;553;51.038;7.216;2022-07-31T03:12:39;5.63;;;4.43;;
1128;SDS011;553;51.038;7.216;2022-07-31T03:15:10;5.93;;;4.13;;
1128;SDS011;553;51.038;7.216;2022-07-31T03:17:39;3.87;;;3.57;;
1128;SDS011;553;51.038;7.216;2022-07-31T03:20:11;6.77;;;4.30;;
1128;SDS011;553;51.038;7.216;2022-07-31T03:22:40;6.30;;;4.23;;
1128;SDS011;553;51.038;7.216;2022-07-31T03:25:08;5.40;;;4.50;;
1128;SDS011;553;51.038;7.216;2022-07-31T03:27:46;8.07;;;3.63;;
1128;SDS011;553;51.038;7.216;2022-07-31T03:30:22;4.30;;;3.60;;
1128;SDS011;553;51.038;7.216;2022-07-31T03:32:55;9.87;;;4.00;;
1128;SDS011;553;51.038;7.216;2022-07-31T03:35:23;5.00;;;3.10;;
1128;SDS011;553;51.038;7.216;2022-07-31T03:37:51;4.33;;;3.00;;
1128;SDS011;553;51.038;7.216;2022-07-31T03:40:18;3.67;;;3.27;;
1128;SDS011;553;51.038;7.216;2022-07-31T03:42:46;3.60;;;3.30;;
1128;SDS011;553;51.038;7.216;2022-07-31T03:45:15;8.50;;;3.20;;
1128;SDS011;553;51.038;7.216;2022-07-31T03:47:43;4.20;;;2.70;;
1128;SDS011;553;51.038;7.216;2022-07-31T03:50:11;7.00;;;3.30;;
1128;SDS011;553;51.038;7.216;2022-07-31T03:52:39;3.73;;;3.40;;
1128;SDS011;553;51.038;7.216;2022-07-31T03:55:06;3.87;;;3.00;;
1128;SDS011;553;51.038;7.216;2022-07-31T03:57:34;4.27;;;3.30;;
1128;SDS011;553;51.038;7.216;2022-07-31T04:00:03;5.50;;;3.67;;
1128;SDS011;553;51.038;7.216;2022-07-31T04:02:41;4.83;;;3.23;;
1128;SDS011;553;51.038;7.216;2022-07-31T04:05:29;4.23;;;3.70;;
1128;SDS011;553;51.038;7.216;2022-07-31T04:07:56;4.30;;;3.87;;
1128;SDS011;553;51.038;7.216;2022-07-31T04:10:23;5.90;;;3.20;;
1128;SDS011;553;51.038;7.216;2022-07-31T04:12:50;6.67;;;3.60;;
1128;SDS011;553;51.038;7.216;2022-07-31T04:15:17;7.10;;;3.40;;
1128;SDS011;553;51.038;7.216;2022-07-31T04:17:44;7.03;;;4.20;;
1128;SDS011;553;51.038;7.216;2022-07-31T04:20:15;4.80;;;3.70;;
1128;SDS011;553;51.038;7.216;2022-07-31T04:22:43;4.23;;;3.70;;
1128;SDS011;553;51.038;7.216;2022-07-31T04:25:25;5.50;;;3.40;;
1128;SDS011;553;51.038;7.216;2022-07-31T04:28:06;5.57;;;3.27;;
1128;SDS011;553;51.038;7.216;2022-07-31T04:30:33;4.93;;;2.93;;
1128;SDS011;553;51.038;7.216;2022-07-31T04:33:00;6.57;;;3.63;;
1128;SDS011;553;51.038;7.216;2022-07-31T04:35:27;4.70;;;3.50;;
1128;SDS011;553;51.038;7.216;2022-07-31T04:37:54;7.90;;;3.60;;
1128;SDS011;553;51.038;7.216;2022-07-31T04:40:22;3.70;;;3.30;;
1128;SDS011;553;51.038;7.216;2022-07-31T04:42:52;4.70;;;3.60;;
1128;SDS011;553;51.038;7.216;2022-07-31T04:45:19;3.80;;;3.40;;
1128;SDS011;553;51.038;7.216;2022-07-31T04:47:46;6.20;;;3.60;;
1128;SDS011;553;51.038;7.216;2022-07-31T04:50:13;3.70;;;3.30;;
1128;SDS011;553;51.038;7.216;2022-07-31T04:52:53;3.87;;;3.40;;
1128;SDS011;553;51.038;7.216;2022-07-31T04:55:21;5.40;;;3.47;;
1128;SDS011;553;51.038;7.216;2022-07-31T04:57:49;3.80;;;3.40;;
1128;SDS011;553;51.038;7.216;2022-07-31T05:00:16;3.90;;;3.40;;
1128;SDS011;553;51.038;7.216;2022-07-31T05:02:43;5.13;;;3.20;;
1128;SDS011;553;51.038;7.216;2022-07-31T05:05:10;3.90;;;3.13;;
1128;SDS011;553;51.038;7.216;2022-07-31T05:07:40;6.90;;;3.87;;
1128;SDS011;553;51.038;7.216;2022-07-31T05:10:12;4.10;;;3.20;;
1128;SDS011;553;51.038;7.216;2022-07-31T05:12:59;3.80;;;3.37;;
1128;SDS011;553;51.038;7.216;2022-07-31T05:15:25;5.13;;;3.50;;
1128;SDS011;553;51.038;7.216;2022-07-31T05:17:54;5.30;;;3.37;;
1128;SDS011;553;51.038;7.216;2022-07-31T05:20:40;4.63;;;3.37;;
1128;SDS011;553;51.038;7.216;2022-07-31T05:23:33;6.80;;;3.60;;
1128;SDS011;553;51.038;7.216;2022-07-31T05:26:14;7.90;;;3.50;;
1128;SDS011;553;51.038;7.216;2022-07-31T05:28:42;4.07;;;3.70;;
1128;SDS011;553;51.038;7.216;2022-07-31T05:31:11;4.40;;;3.60;;
1128;SDS011;553;51.038;7.216;2022-07-31T05:33:38;5.20;;;4.27;;
1128;SDS011;553;51.038;7.216;2022-07-31T05:36:05;6.87;;;4.53;;
1128;SDS011;553;51.038;7.216;2022-07-31T05:38:32;4.80;;;4.00;;
1128;SDS011;553;51.038;7.216;2022-07-31T05:41:20;4.63;;;4.20;;
1128;SDS011;553;51.038;7.216;2022-07-31T05:44:05;6.57;;;4.27;;
1128;SDS011;553;51.038;7.216;2022-07-31T05:46:38;5.60;;;4.03;;
1128;SDS011;553;51.038;7.216;2022-07-31T05:49:05;4.53;;;4.10;;
1128;SDS011;553;51.038;7.216;2022-07-31T05:51:32;5.20;;;3.97;;
1128;SDS011;553;51.038;7.216;2022-07-31T05:53:59;4.70;;;3.40;;
1128;SDS011;553;51.038;7.216;2022-07-31T05:56:45;4.80;;;3.50;;
1128;SDS011;553;51.038;7.216;2022-07-31T05:59:14;3.70;;;3.30;;
1128;SDS011;553;51.038;7.216;2022-07-31T06:01:41;4.20;;;3.50;;
1128;SDS011;553;51.038;7.216;2022-07-31T06:04:08;4.70;;;3.63;;
1128;SDS011;553;51.038;7.216;2022-07-31T06:06:39;4.63;;;3.70;;
1128;SDS011;553;51.038;7.216;2022-07-31T06:09:06;7.93;;;3.57;;
1128;SDS011;553;51.038;7.216;2022-07-31T06:11:36;4.10;;;3.47;;
1128;SDS011;553;51.038;7.216;2022-07-31T06:14:03;4.07;;;3.63;;
1128;SDS011;553;51.038;7.216;2022-07-31T06:16:51;5.70;;;4.00;;
1128;SDS011;553;51.038;7.216;2022-07-31T06:19:18;5.13;;;3.60;;
1128;SDS011;553;51.038;7.216;2022-07-31T06:21:50;7.30;;;4.30;;
1128;SDS011;553;51.038;7.216;2022-07-31T06:24:20;6.40;;;3.60;;
1128;SDS011;553;51.038;7.216;2022-07-31T06:26:47;5.20;;;3.40;;
1128;SDS011;553;51.038;7.216;2022-07-31T06:29:14;5.70;;;3.20;;
1128;SDS011;553;51.038;7.216;2022-07-31T06:31:41;3.87;;;3.00;;
1128;SDS011;553;51.038;7.216;2022-07-31T06:34:07;4.10;;;3.57;;
1128;SDS011;553;51.038;7.216;2022-07-31T06:36:38;5.67;;;3.90;;
1128;SDS011;553;51.038;7.216;2022-07-31T06:39:09;6.73;;;4.23;;
1128;SDS011;553;51.038;7.216;2022-07-31T06:41:59;5.33;;;3.30;;
1128;SDS011;553;51.038;7.216;2022-07-31T06:44:26;3.90;;;3.13;;
1128;SDS011;553;51.038;7.216;2022-07-31T06:47:12;5.47;;;4.00;;
1128;SDS011;553;51.038;7.216;2022-07-31T06:50:00;5.27;;;3.93;;
1128;SDS011;553;51.038;7.216;2022-07-31T06:52:33;7.20;;;4.20;;
1128;SDS011;553;51.038;7.216;2022-07-31T06:55:00;5.20;;;4.10;;
1128;SDS011;553;51.038;7.216;2022-07-31T06:57:27;4.47;;;4.07;;
1128;SDS011;553;51.038;7.216;2022-07-31T06:59:54;5.80;;;4.57;;
1128;SDS011;553;51.038;7.216;2022-07-31T07:02:21;6.10;;;4.90;;
1128;SDS011;553;51.038;7.216;2022-07-31T07:04:49;6.20;;;4.07;;
1128;SDS011;553;51.038;7.216;2022-07-31T07:07:33;5.43;;;3.57;;
1128;SDS011;553;51.038;7.216;2022-07-31T07:10:01;4.43;;;3.30;;
1128;SDS011;553;51.038;7.216;2022-07-31T07:12:48;4.53;;;3.20;;
1128;SDS011;553;51.038;7.216;2022-07-31T07:15:16;6.87;;;3.50;;
1128;SDS011;553;51.038;7.216;2022-07-31T07:17:43;6.63;;;3.80;;
1128;SDS011;553;51.038;7.216;2022-07-31T07:20:15;4.50;;;3.47;;
1128;SDS011;553;51.038;7.216;2022-07-31T07:22:42;5.40;;;3.27;;
1128;SDS011;553;51.038;7.216;2022-07-31T07:25:10;6.57;;;3.30;;
1128;SDS011;553;51.038;7.216;2022-07-31T07:27:38;3.70;;;2.90;;
1128;SDS011;553;51.038;7.216;2022-07-31T07:30:05;3.20;;;2.90;;
1128;SDS011;553;51.038;7.216;2022-07-31T07:32:32;5.63;;;3.37;;
1128;SDS011;553;51.038;7.216;2022-07-31T07:34:59;5.60;;;3.00;;
1128;SDS011;553;51.038;7.216;2022-07-31T07:37:47;3.73;;;3.13;;
1128;SDS011;553;51.038;7.216;2022-07-31T07:40:14;5.00;;;3.43;;
1128;SDS011;553;51.038;7.216;2022-07-31T07:42:42;4.13;;;3.70;;
1128;SDS011;553;51.038;7.216;2022-07-31T07:45:09;5.20;;;3.30;;
1128;SDS011;553;51.038;7.216;2022-07-31T07:47:39;4.40;;;3.33;;
1128;SDS011;553;51.038;7.216;2022-07-31T07:50:28;4.20;;;3.50;;
1128;SDS011;553;51.038;7.216;2022-07-31T07:53:23;6.23;;;3.10;;
1128;SDS011;553;51.038;7.216;2022-07-31T07:56:08;3.13;;;2.83;;
1128;SDS011;553;51.038;7.216;2022-07-31T07:58:53;3.10;;;2.80;;
1128;SDS011;553;51.038;7.216;2022-07-31T08:01:39;3.97;;;3.13;;
1128;SDS011;553;51.038;7.216;2022-07-31T08:04:15;4.27;;;3.13;;
1128;SDS011;553;51.038;7.216;2022-07-31T08:06:42;5.00;;;3.47;;
1128;SDS011;553;51.038;7.216;2022-07-31T08:09:09;4.77;;;3.33;;
1128;SDS011;553;51.038;7.216;2022-07-31T08:11:54;3.07;;;2.77;;
1128;SDS011;553;51.038;7.216;2022-07-31T08:14:41;5.80;;;2.90;;
1128;SDS011;553;51.038;7.216;2022-07-31T08:17:43;4.67;;;2.70;;
1128;SDS011;553;51.038;7.216;2022-07-31T08:20:10;2.60;;;2.40;;
1128;SDS011;553;51.038;7.216;2022-07-31T08:22:37;4.33;;;2.93;;
1128;SDS011;553;51.038;7.216;2022-07-31T08:25:04;3.87;;;2.97;;
1128;SDS011;553;51.038;7.216;2022-07-31T08:27:36;3.30;;;2.70;;
1128;SDS011;553;51.038;7.216;2022-07-31T08:30:06;2.90;;;2.50;;
1128;SDS011;553;51.038;7.216;2022-07-31T08:32:33;3.87;;;2.30;;
1128;SDS011;553;51.038;7.216;2022-07-31T08:35:12;3.93;;;2.87;;
1128;SDS011;553;51.038;7.216;2022-07-31T08:37:40;3.23;;;2.50;;
1128;SDS011;553;51.038;7.216;2022-07-31T08:40:28;5.60;;;2.40;;
1128;SDS011;553;51.038;7.216;2022-07-31T08:42:56;3.87;;;2.30;;
1128;SDS011;553;51.038;7.216;2022-07-31T08:45:26;2.73;;;2.33;;
1128;SDS011;553;51.038;7.216;2022-07-31T08:48:09;3.60;;;2.50;;
1128;SDS011;553;51.038;7.216;2022-07-31T08:50:44;3.30;;;2.30;;
1128;SDS011;553;51.038;7.216;2022-07-31T08:53:37;4.80;;;2.70;;
1128;SDS011;553;51.038;7.216;2022-07-31T08:56:11;4.80;;;2.60;;
1128;SDS011;553;51.038;7.216;2022-07-31T08:58:38;3.10;;;2.33;;
1128;SDS011;553;51.038;7.216;2022-07-31T09:01:07;4.80;;;3.17;;
1128;SDS011;553;51.038;7.216;2022-07-31T09:03:36;2.67;;;2.40;;
1128;SDS011;553;51.038;7.216;2022-07-31T09:06:05;2.77;;;2.20;;
1128;SDS011;553;51.038;7.216;2022-07-31T09:08:33;3.13;;;2.00;;
1128;SDS011;553;51.038;7.216;2022-07-31T09:11:02;2.60;;;1.70;;
1128;SDS011;553;51.038;7.216;2022-07-31T09:13:35;2.17;;;1.97;;
1128;SDS011;553;51.038;7.216;2022-07-31T09:16:19;4.47;;;2.00;;
1128;SDS011;553;51.038;7.216;2022-07-31T09:19:00;3.00;;;1.90;;
1128;SDS011;553;51.038;7.216;2022-07-31T09:21:51;3.47;;;2.00;;
1128;SDS011;553;51.038;7.216;2022-07-31T09:24:28;2.03;;;1.83;;
1128;SDS011;553;51.038;7.216;2022-07-31T09:27:03;2.40;;;1.77;;
1128;SDS011;553;51.038;7.216;2022-07-31T09:29:37;2.93;;;1.80;;
1128;SDS011;553;51.038;7.216;2022-07-31T09:32:15;3.70;;;1.90;;
1128;SDS011;553;51.038;7.216;2022-07-31T09:35:07;3.00;;;1.70;;
1128;SDS011;553;51.038;7.216;2022-07-31T09:37:36;2.97;;;2.10;;
1128;SDS011;553;51.038;7.216;2022-07-31T09:40:32;1.93;;;1.70;;
1128;SDS011;553;51.038;7.216;2022-07-31T09:43:25;2.80;;;2.10;;
1128;SDS011;553;51.038;7.216;2022-07-31T09:45:57;1.83;;;1.60;;
1128;SDS011;553;51.038;7.216;2022-07-31T09:48:25;2.70;;;1.87;;
1128;SDS011;553;51.038;7.216;2022-07-31T09:51:04;3.03;;;2.10;;
1128;SDS011;553;51.038;7.216;2022-07-31T09:53:39;2.03;;;1.87;;
1128;SDS011;553;51.038;7.216;2022-07-31T09:56:33;2.27;;;1.83;;
1128;SDS011;553;51.038;7.216;2022-07-31T09:59:01;1.97;;;1.63;;
1128;SDS011;553;51.038;7.216;2022-07-31T10:01:29;2.30;;;2.10;;
1128;SDS011;553;51.038;7.216;2022-07-31T10:03:58;2.53;;;1.90;;
1128;SDS011;553;51.038;7.216;2022-07-31T10:06:26;3.07;;;1.70;;
1128;SDS011;553;51.038;7.216;2022-07-31T10:08:57;4.30;;;2.63;;
1128;SDS011;553;51.038;7.216;2022-07-31T10:11:51;1.53;;;1.43;;
1128;SDS011;553;51.038;7.216;2022-07-31T10:14:23;2.10;;;1.90;;
1128;SDS011;553;51.038;7.216;2022-07-31T10:16:56;4.33;;;2.00;;
1128;SDS011;553;51.038;7.216;2022-07-31T10:20:05;1.90;;;1.40;;
1128;SDS011;553;51.038;7.216;2022-07-31T10:23:00;2.03;;;1.80;;
1128;SDS011;553;51.038;7.216;2022-07-31T10:25:44;2.10;;;1.90;;
1128;SDS011;553;51.038;7.216;2022-07-31T10:28:19;2.00;;;1.60;;
1128;SDS011;553;51.038;7.216;2022-07-31T10:30:47;3.50;;;1.73;;
1128;SDS011;553;51.038;7.216;2022-07-31T10:33:14;2.67;;;1.70;;
1128;SDS011;553;51.038;7.216;2022-07-31T10:36:22;1.83;;;1.63;;
1128;SDS011;553;51.038;7.216;2022-07-31T10:39:19;2.20;;;1.83;;
1128;SDS011;553;51.038;7.216;2022-07-31T10:42:30;2.53;;;2.27;;
1128;SDS011;553;51.038;7.216;2022-07-31T10:45:09;4.00;;;1.80;;
1128;SDS011;553;51.038;7.216;2022-07-31T10:47:53;3.77;;;1.90;;
1128;SDS011;553;51.038;7.216;2022-07-31T10:50:39;1.87;;;1.70;;
1128;SDS011;553;51.038;7.216;2022-07-31T10:53:16;2.77;;;1.60;;
1128;SDS011;553;51.038;7.216;2022-07-31T10:56:05;3.83;;;1.90;;
1128;SDS011;553;51.038;7.216;2022-07-31T10:58:59;2.23;;;1.60;;
1128;SDS011;553;51.038;7.216;2022-07-31T11:01:47;3.70;;;2.20;;
1128;SDS011;553;51.038;7.216;2022-07-31T11:04:37;4.87;;;2.20;;
1128;SDS011;553;51.038;7.216;2022-07-31T11:07:26;2.40;;;1.90;;
1128;SDS011;553;51.038;7.216;2022-07-31T11:13:04;2.57;;;1.57;;
1128;SDS011;553;51.038;7.216;2022-07-31T11:16:01;2.13;;;1.87;;
1128;SDS011;553;51.038;7.216;2022-07-31T11:19:03;2.03;;;1.83;;
1128;SDS011;553;51.038;7.216;2022-07-31T11:21:36;2.60;;;2.00;;
1128;SDS011;553;51.038;7.216;2022-07-31T11:24:13;3.80;;;1.97;;
1128;SDS011;553;51.038;7.216;2022-07-31T11:26:48;1.77;;;1.37;;
1128;SDS011;553;51.038;7.216;2022-07-31T11:29:29;2.53;;;1.43;;
1128;SDS011;553;51.038;7.216;2022-07-31T11:32:21;1.70;;;1.43;;
1128;SDS011;553;51.038;7.216;2022-07-31T11:34:52;1.80;;;1.70;;
1128;SDS011;553;51.038;7.216;2022-07-31T11:37:21;4.10;;;1.60;;
1128;SDS011;553;51.038;7.216;2022-07-31T11:39:51;2.00;;;1.80;;
1128;SDS011;553;51.038;7.216;2022-07-31T11:42:19;2.10;;;1.47;;
1128;SDS011;553;51.038;7.216;2022-07-31T11:45:00;3.70;;;1.77;;
1128;SDS011;553;51.038;7.216;2022-07-31T11:47:41;1.30;;;1.10;;
1128;SDS011;553;51.038;7.216;2022-07-31T11:50:37;2.00;;;1.80;;
1128;SDS011;553;51.038;7.216;2022-07-31T11:53:08;1.97;;;1.50;;
1128;SDS011;553;51.038;7.216;2022-07-31T11:58:18;2.43;;;2.23;;
1128;SDS011;553;51.038;7.216;2022-07-31T12:03:17;2.70;;;1.97;;
1128;SDS011;553;51.038;7.216;2022-07-31T12:05:46;2.67;;;2.23;;
1128;SDS011;553;51.038;7.216;2022-07-31T12:08:14;2.77;;;2.13;;
1128;SDS011;553;51.038;7.216;2022-07-31T12:10:42;2.90;;;2.20;;
1128;SDS011;553;51.038;7.216;2022-07-31T12:13:16;3.20;;;2.47;;
1128;SDS011;553;51.038;7.216;2022-07-31T12:15:59;2.60;;;2.40;;
1128;SDS011;553;51.038;7.216;2022-07-31T12:21:14;5.20;;;3.10;;
1128;SDS011;553;51.038;7.216;2022-07-31T12:23:44;5.07;;;3.00;;
1128;SDS011;553;51.038;7.216;2022-07-31T12:26:23;5.20;;;3.07;;
1128;SDS011;553;51.038;7.216;2022-07-31T12:31:46;3.57;;;2.30;;
1128;SDS011;553;51.038;7.216;2022-07-31T12:34:27;4.43;;;3.17;;
1128;SDS011;553;51.038;7.216;2022-07-31T12:36:55;3.20;;;2.37;;
1128;SDS011;553;51.038;7.216;2022-07-31T12:39:23;3.03;;;2.73;;
1128;SDS011;553;51.038;7.216;2022-07-31T12:42:10;3.90;;;2.83;;
1128;SDS011;553;51.038;7.216;2022-07-31T12:44:58;4.87;;;2.87;;
1128;SDS011;553;51.038;7.216;2022-07-31T12:47:45;3.63;;;2.77;;
1128;SDS011;553;51.038;7.216;2022-07-31T12:50:21;7.17;;;3.40;;
1128;SDS011;553;51.038;7.216;2022-07-31T12:52:48;4.20;;;2.87;;
1128;SDS011;553;51.038;7.216;2022-07-31T12:55:15;3.63;;;2.80;;
1128;SDS011;553;51.038;7.216;2022-07-31T12:57:43;3.00;;;2.57;;
1128;SDS011;553;51.038;7.216;2022-07-31T13:00:18;2.80;;;2.60;;
1128;SDS011;553;51.038;7.216;2022-07-31T13:02:52;3.70;;;3.40;;
1128;SDS011;553;51.038;7.216;2022-07-31T13:05:20;7.13;;;3.10;;
1128;SDS011;553;51.038;7.216;2022-07-31T13:07:47;4.33;;;3.40;;
1128;SDS011;553;51.038;7.216;2022-07-31T13:10:14;2.90;;;2.57;;
1128;SDS011;553;51.038;7.216;2022-07-31T13:12:49;3.97;;;3.40;;
1128;SDS011;553;51.038;7.216;2022-07-31T13:15:17;3.40;;;3.10;;
1128;SDS011;553;51.038;7.216;2022-07-31T13:17:46;3.93;;;3.53;;
1128;SDS011;553;51.038;7.216;2022-07-31T13:20:16;4.10;;;3.10;;
1128;SDS011;553;51.038;7.216;2022-07-31T13:22:43;3.23;;;2.93;;
1128;SDS011;553;51.038;7.216;2022-07-31T13:25:10;4.87;;;2.83;;
1128;SDS011;553;51.038;7.216;2022-07-31T13:27:37;3.33;;;2.60;;
1128;SDS011;553;51.038;7.216;2022-07-31T13:30:06;4.83;;;2.90;;
1128;SDS011;553;51.038;7.216;2022-07-31T13:32:34;4.57;;;2.37;;
1128;SDS011;553;51.038;7.216;2022-07-31T13:35:01;3.00;;;2.70;;
1128;SDS011;553;51.038;7.216;2022-07-31T13:37:48;4.20;;;3.10;;
1128;SDS011;553;51.038;7.216;2022-07-31T13:40:14;3.40;;;3.10;;
1128;SDS011;553;51.038;7.216;2022-07-31T13:42:41;4.60;;;2.83;;
1128;SDS011;553;51.038;7.216;2022-07-31T13:45:08;4.93;;;3.00;;
1128;SDS011;553;51.038;7.216;2022-07-31T13:47:35;3.50;;;3.20;;
1128;SDS011;553;51.038;7.216;2022-07-31T13:50:17;3.17;;;2.87;;
1128;SDS011;553;51.038;7.216;2022-07-31T13:52:44;3.73;;;3.07;;
1128;SDS011;553;51.038;7.216;2022-07-31T13:55:11;4.50;;;3.03;;
1128;SDS011;553;51.038;7.216;2022-07-31T13:57:38;5.90;;;3.30;;
1128;SDS011;553;51.038;7.216;2022-07-31T14:00:05;3.37;;;3.03;;
1128;SDS011;553;51.038;7.216;2022-07-31T14:02:32;3.63;;;3.17;;
1128;SDS011;553;51.038;7.216;2022-07-31T14:04:59;3.33;;;3.03;;
1128;SDS011;553;51.038;7.216;2022-07-31T14:07:26;3.63;;;3.33;;
1128;SDS011;553;51.038;7.216;2022-07-31T14:10:13;5.67;;;3.77;;
1128;SDS011;553;51.038;7.216;2022-07-31T14:12:45;3.50;;;3.20;;
1128;SDS011;553;51.038;7.216;2022-07-31T14:15:13;4.77;;;4.23;;
1128;SDS011;553;51.038;7.216;2022-07-31T14:17:40;7.23;;;3.40;;
1128;SDS011;553;51.038;7.216;2022-07-31T14:20:06;3.73;;;3.30;;
1128;SDS011;553;51.038;7.216;2022-07-31T14:22:34;3.70;;;3.40;;
1128;SDS011;553;51.038;7.216;2022-07-31T14:25:01;6.73;;;3.40;;
1128;SDS011;553;51.038;7.216;2022-07-31T14:27:28;3.50;;;3.00;;
1128;SDS011;553;51.038;7.216;2022-07-31T14:29:55;5.00;;;3.40;;
1128;SDS011;553;51.038;7.216;2022-07-31T14:32:22;4.90;;;4.50;;
1128;SDS011;553;51.038;7.216;2022-07-31T14:34:50;3.77;;;3.30;;
1128;SDS011;553;51.038;7.216;2022-07-31T14:37:17;3.20;;;2.97;;
1128;SDS011;553;51.038;7.216;2022-07-31T14:39:45;4.20;;;3.27;;
1128;SDS011;553;51.038;7.216;2022-07-31T14:42:13;4.07;;;3.33;;
1128;SDS011;553;51.038;7.216;2022-07-31T14:44:39;4.07;;;3.30;;
1128;SDS011;553;51.038;7.216;2022-07-31T14:47:08;4.70;;;4.30;;
1128;SDS011;553;51.038;7.216;2022-07-31T14:49:36;4.97;;;4.17;;
1128;SDS011;553;51.038;7.216;2022-07-31T14:52:23;5.57;;;4.40;;
1128;SDS011;553;51.038;7.216;2022-07-31T14:54:52;5.40;;;3.70;;
1128;SDS011;553;51.038;7.216;2022-07-31T14:57:19;4.60;;;3.70;;
1128;SDS011;553;51.038;7.216;2022-07-31T14:59:48;3.70;;;3.40;;
1128;SDS011;553;51.038;7.216;2022-07-31T15:02:15;3.90;;;3.47;;
1128;SDS011;553;51.038;7.216;2022-07-31T15:04:47;4.87;;;4.20;;
1128;SDS011;553;51.038;7.216;2022-07-31T15:07:15;9.90;;;4.30;;
1128;SDS011;553;51.038;7.216;2022-07-31T15:10:04;3.57;;;3.27;;
1128;SDS011;553;51.038;7.216;2022-07-31T15:12:31;4.13;;;3.53;;
1128;SDS011;553;51.038;7.216;2022-07-31T15:14:58;2.93;;;2.60;;
1128;SDS011;553;51.038;7.216;2022-07-31T15:17:25;3.80;;;3.40;;
1128;SDS011;553;51.038;7.216;2022-07-31T15:19:52;3.27;;;2.97;;
1128;SDS011;553;51.038;7.216;2022-07-31T15:22:19;5.10;;;3.20;;
1128;SDS011;553;51.038;7.216;2022-07-31T15:24:46;3.40;;;3.10;;
1128;SDS011;553;51.038;7.216;2022-07-31T15:27:18;3.20;;;2.90;;
1128;SDS011;553;51.038;7.216;2022-07-31T15:29:49;3.67;;;3.03;;
1128;SDS011;553;51.038;7.216;2022-07-31T15:32:31;3.60;;;2.80;;
1128;SDS011;553;51.038;7.216;2022-07-31T15:34:58;3.00;;;2.60;;
1128;SDS011;553;51.038;7.216;2022-07-31T15:37:26;3.10;;;2.67;;
1128;SDS011;553;51.038;7.216;2022-07-31T15:40:04;3.73;;;2.90;;
1128;SDS011;553;51.038;7.216;2022-07-31T15:42:33;3.30;;;2.77;;
1128;SDS011;553;51.038;7.216;2022-07-31T15:45:08;4.10;;;2.73;;
1128;SDS011;553;51.038;7.216;2022-07-31T15:47:39;2.60;;;2.40;;
1128;SDS011;553;51.038;7.216;2022-07-31T15:50:07;3.20;;;2.87;;
1128;SDS011;553;51.038;7.216;2022-07-31T15:52:35;3.03;;;2.77;;
1128;SDS011;553;51.038;7.216;2022-07-31T15:55:02;5.73;;;2.93;;
1128;SDS011;553;51.038;7.216;2022-07-31T15:57:31;3.60;;;3.10;;
1128;SDS011;553;51.038;7.216;2022-07-31T15:59:58;3.70;;;3.37;;
1128;SDS011;553;51.038;7.216;2022-07-31T16:02:25;4.60;;;3.03;;
1128;SDS011;553;51.038;7.216;2022-07-31T16:04:52;3.13;;;2.83;;
1128;SDS011;553;51.038;7.216;2022-07-31T16:07:27;3.40;;;3.10;;
1128;SDS011;553;51.038;7.216;2022-07-31T16:10:14;2.90;;;2.70;;
1128;SDS011;553;51.038;7.216;2022-07-31T16:12:47;3.30;;;3.00;;
1128;SDS011;553;51.038;7.216;2022-07-31T16:15:14;3.70;;;2.83;;
1128;SDS011;553;51.038;7.216;2022-07-31T16:17:42;5.10;;;3.33;;
1128;SDS011;553;51.038;7.216;2022-07-31T16:20:13;4.23;;;2.90;;
1128;SDS011;553;51.038;7.216;2022-07-31T16:23:00;4.13;;;3.00;;
1128;SDS011;553;51.038;7.216;2022-07-31T16:25:28;3.87;;;3.03;;